sensor_id;sensor_type;location;lat;lon;timestamp;pressure;altitude;pressure_sealevel;temperature;humidity
31483;BME280;18103;52.246;8.052;2023-01-29T00:01:58;101768.69;;;1.04;75.16
31483;BME280;18103;52.246;8.052;2023-01-29T00:04:24;101765.28;;;0.99;75.02
31483;BME280;18103;52.246;8.052;2023-01-29T00:06:49;101761.13;;;0.89;75.72
31483;BME280;18103;52.246;8.052;2023-01-29T00:09:15;101758.38;;;0.98;75.44
31483;BME280;18103;52.246;8.052;2023-01-29T00:11:41;101754.97;;;0.94;75.76
31483;BME280;18103;52.246;8.052;2023-01-29T00:14:06;101747.03;;;1.04;75.18
31483;BME280;18103;52.246;8.052;2023-01-29T00:16:32;101752.16;;;1.08;74.55
31483;BME280;18103;52.246;8.052;2023-01-29T00:18:57;101759.28;;;0.95;75.29
31483;BME280;18103;52.246;8.052;2023-01-29T00:21:22;101761.88;;;0.97;75.41
31483;BME280;18103;52.246;8.052;2023-01-29T00:23:49;101759.19;;;1.01;75.38
31483;BME280;18103;52.246;8.052;2023-01-29T00:26:15;101761.06;;;0.92;75.61
31483;BME280;18103;52.246;8.052;2023-01-29T00:28:41;101758.59;;;0.84;75.67
31483;BME280;18103;52.246;8.052;2023-01-29T00:31:11;101756.88;;;0.83;75.65
31483;BME280;18103;52.246;8.052;2023-01-29T00:33:37;101760.31;;;0.85;75.46
31483;BME280;18103;52.246;8.052;2023-01-29T00:36:04;101762.06;;;0.84;75.55
31483;BME280;18103;52.246;8.052;2023-01-29T00:38:30;101760.44;;;0.77;76.03
31483;BME280;18103;52.246;8.052;2023-01-29T00:40:56;101761.28;;;0.78;75.80
31483;BME280;18103;52.246;8.052;2023-01-29T00:43:39;101759.47;;;0.83;75.99
31483;BME280;18103;52.246;8.052;2023-01-29T00:46:23;101749.13;;;0.80;75.43
31483;BME280;18103;52.246;8.052;2023-01-29T00:48:48;101753.31;;;0.90;75.34
31483;BME280;18103;52.246;8.052;2023-01-29T00:51:14;101755.16;;;0.82;75.53
31483;BME280;18103;52.246;8.052;2023-01-29T00:53:39;101749.03;;;0.86;75.42
31483;BME280;18103;52.246;8.052;2023-01-29T00:56:05;101742.09;;;0.85;75.71
31483;BME280;18103;52.246;8.052;2023-01-29T00:58:30;101729.00;;;0.93;75.34
31483;BME280;18103;52.246;8.052;2023-01-29T01:00:59;101721.31;;;0.85;75.44
31483;BME280;18103;52.246;8.052;2023-01-29T01:03:25;101717.72;;;0.94;75.56
31483;BME280;18103;52.246;8.052;2023-01-29T01:06:01;101714.38;;;0.87;75.55
31483;BME280;18103;52.246;8.052;2023-01-29T01:08:27;101706.81;;;0.72;75.78
31483;BME280;18103;52.246;8.052;2023-01-29T01:11:11;101697.22;;;0.75;75.89
31483;BME280;18103;52.246;8.052;2023-01-29T01:13:36;101693.91;;;0.65;76.13
31483;BME280;18103;52.246;8.052;2023-01-29T01:16:16;101698.94;;;0.76;75.71
31483;BME280;18103;52.246;8.052;2023-01-29T01:18:43;101693.72;;;0.76;75.85
31483;BME280;18103;52.246;8.052;2023-01-29T01:21:08;101687.72;;;0.74;76.00
31483;BME280;18103;52.246;8.052;2023-01-29T01:23:34;101688.56;;;0.75;75.48
31483;BME280;18103;52.246;8.052;2023-01-29T01:25:59;101697.13;;;0.81;75.66
31483;BME280;18103;52.246;8.052;2023-01-29T01:28:25;101703.16;;;0.83;75.69
31483;BME280;18103;52.246;8.052;2023-01-29T01:30:50;101702.06;;;0.98;75.51
31483;BME280;18103;52.246;8.052;2023-01-29T01:33:16;101706.59;;;0.85;75.65
31483;BME280;18103;52.246;8.052;2023-01-29T01:35:41;101710.88;;;0.90;76.05
31483;BME280;18103;52.246;8.052;2023-01-29T01:38:07;101702.16;;;0.91;75.92
31483;BME280;18103;52.246;8.052;2023-01-29T01:40:32;101690.06;;;0.90;75.24
31483;BME280;18103;52.246;8.052;2023-01-29T01:42:59;101694.34;;;0.94;75.45
31483;BME280;18103;52.246;8.052;2023-01-29T01:45:34;101695.34;;;0.83;75.71
31483;BME280;18103;52.246;8.052;2023-01-29T01:48:11;101697.19;;;0.77;76.24
31483;BME280;18103;52.246;8.052;2023-01-29T01:50:59;101708.47;;;0.77;76.24
31483;BME280;18103;52.246;8.052;2023-01-29T01:53:36;101711.06;;;0.76;76.40
31483;BME280;18103;52.246;8.052;2023-01-29T01:56:21;101713.63;;;0.79;75.63
31483;BME280;18103;52.246;8.052;2023-01-29T01:58:51;101720.69;;;0.71;75.93
31483;BME280;18103;52.246;8.052;2023-01-29T02:01:19;101730.16;;;0.73;75.98
31483;BME280;18103;52.246;8.052;2023-01-29T02:04:01;101724.03;;;0.79;75.92
31483;BME280;18103;52.246;8.052;2023-01-29T02:06:47;101722.25;;;0.81;76.13
31483;BME280;18103;52.246;8.052;2023-01-29T02:09:36;101726.22;;;1.05;75.41
31483;BME280;18103;52.246;8.052;2023-01-29T02:12:10;101726.47;;;0.88;75.86
31483;BME280;18103;52.246;8.052;2023-01-29T02:14:37;101729.78;;;0.96;75.86
31483;BME280;18103;52.246;8.052;2023-01-29T02:17:05;101736.88;;;0.87;75.36
31483;BME280;18103;52.246;8.052;2023-01-29T02:19:49;101737.78;;;0.85;75.63
31483;BME280;18103;52.246;8.052;2023-01-29T02:31:17;101729.28;;;0.76;76.16
31483;BME280;18103;52.246;8.052;2023-01-29T02:34:17;101732.69;;;0.78;76.14
31483;BME280;18103;52.246;8.052;2023-01-29T02:37:08;101733.50;;;0.83;75.95
31483;BME280;18103;52.246;8.052;2023-01-29T02:39:45;101729.38;;;0.68;75.91
31483;BME280;18103;52.246;8.052;2023-01-29T02:42:30;101737.78;;;0.85;75.95
31483;BME280;18103;52.246;8.052;2023-01-29T02:45:08;101726.53;;;0.83;75.90
31483;BME280;18103;52.246;8.052;2023-01-29T02:47:46;101726.47;;;0.90;75.85
31483;BME280;18103;52.246;8.052;2023-01-29T02:53:00;101725.75;;;0.80;76.40
31483;BME280;18103;52.246;8.052;2023-01-29T02:58:09;101740.34;;;0.89;76.03
31483;BME280;18103;52.246;8.052;2023-01-29T03:00:40;101740.34;;;0.89;75.86
31483;BME280;18103;52.246;8.052;2023-01-29T03:03:17;101747.13;;;0.97;75.67
31483;BME280;18103;52.246;8.052;2023-01-29T03:08:46;101730.59;;;1.01;75.88
31483;BME280;18103;52.246;8.052;2023-01-29T03:11:16;101722.72;;;1.05;76.34
31483;BME280;18103;52.246;8.052;2023-01-29T03:14:02;101726.25;;;1.04;75.87
31483;BME280;18103;52.246;8.052;2023-01-29T03:19:15;101716.94;;;0.89;75.97
31483;BME280;18103;52.246;8.052;2023-01-29T03:21:57;101703.72;;;1.02;76.04
31483;BME280;18103;52.246;8.052;2023-01-29T03:24:57;101706.38;;;0.98;76.12
31483;BME280;18103;52.246;8.052;2023-01-29T03:27:46;101700.16;;;1.08;75.38
31483;BME280;18103;52.246;8.052;2023-01-29T03:30:34;101689.94;;;0.96;76.27
31483;BME280;18103;52.246;8.052;2023-01-29T03:33:23;101690.03;;;0.91;76.47
31483;BME280;18103;52.246;8.052;2023-01-29T03:35:56;101697.88;;;0.90;76.44
31483;BME280;18103;52.246;8.052;2023-01-29T03:38:25;101696.84;;;0.98;76.52
31483;BME280;18103;52.246;8.052;2023-01-29T03:41:27;101701.16;;;0.98;76.53
31483;BME280;18103;52.246;8.052;2023-01-29T03:44:14;101690.66;;;1.06;76.38
31483;BME280;18103;52.246;8.052;2023-01-29T03:46:52;101687.94;;;1.12;76.15
31483;BME280;18103;52.246;8.052;2023-01-29T03:52:00;101685.41;;;1.09;76.03
31483;BME280;18103;52.246;8.052;2023-01-29T04:00:03;101664.78;;;0.99;76.18
31483;BME280;18103;52.246;8.052;2023-01-29T04:05:30;101653.44;;;1.04;76.18
31483;BME280;18103;52.246;8.052;2023-01-29T04:08:04;101654.53;;;0.90;76.61
31483;BME280;18103;52.246;8.052;2023-01-29T04:10:32;101651.06;;;0.90;76.93
31483;BME280;18103;52.246;8.052;2023-01-29T04:13:07;101650.13;;;0.95;76.78
31483;BME280;18103;52.246;8.052;2023-01-29T04:15:39;101637.91;;;0.99;76.46
31483;BME280;18103;52.246;8.052;2023-01-29T04:18:08;101627.44;;;1.04;76.44
31483;BME280;18103;52.246;8.052;2023-01-29T04:20:34;101623.19;;;0.98;76.08
31483;BME280;18103;52.246;8.052;2023-01-29T04:23:00;101624.28;;;0.86;76.71
31483;BME280;18103;52.246;8.052;2023-01-29T04:25:28;101628.50;;;0.92;76.67
31483;BME280;18103;52.246;8.052;2023-01-29T04:33:28;101627.53;;;0.97;76.58
31483;BME280;18103;52.246;8.052;2023-01-29T04:36:18;101613.06;;;0.84;76.91
31483;BME280;18103;52.246;8.052;2023-01-29T04:44:14;101590.47;;;0.86;76.93
31483;BME280;18103;52.246;8.052;2023-01-29T04:47:04;101594.78;;;0.89;76.97
31483;BME280;18103;52.246;8.052;2023-01-29T04:50:43;101604.25;;;0.91;76.95
31483;BME280;18103;52.246;8.052;2023-01-29T04:55:46;101591.97;;;0.98;76.79
31483;BME280;18103;52.246;8.052;2023-01-29T04:58:30;101592.25;;;0.82;77.07
31483;BME280;18103;52.246;8.052;2023-01-29T05:00:57;101585.84;;;1.02;77.00
31483;BME280;18103;52.246;8.052;2023-01-29T05:03:24;101585.25;;;0.88;77.43
31483;BME280;18103;52.246;8.052;2023-01-29T05:05:51;101585.19;;;0.91;77.29
31483;BME280;18103;52.246;8.052;2023-01-29T05:08:20;101597.41;;;0.87;77.31
31483;BME280;18103;52.246;8.052;2023-01-29T05:10:48;101595.53;;;0.95;77.22
31483;BME280;18103;52.246;8.052;2023-01-29T05:13:15;101599.97;;;0.89;76.96
31483;BME280;18103;52.246;8.052;2023-01-29T05:15:53;101604.34;;;0.85;76.85
31483;BME280;18103;52.246;8.052;2023-01-29T05:18:20;101595.59;;;0.91;76.59
31483;BME280;18103;52.246;8.052;2023-01-29T05:20:46;101594.94;;;0.79;77.09
31483;BME280;18103;52.246;8.052;2023-01-29T05:23:20;101596.56;;;0.85;77.19
31483;BME280;18103;52.246;8.052;2023-01-29T05:25:47;101600.94;;;0.83;77.37
31483;BME280;18103;52.246;8.052;2023-01-29T05:28:13;101592.22;;;0.85;77.25
31483;BME280;18103;52.246;8.052;2023-01-29T05:30:47;101593.06;;;0.88;77.02
31483;BME280;18103;52.246;8.052;2023-01-29T05:33:14;101600.00;;;0.87;77.25
31483;BME280;18103;52.246;8.052;2023-01-29T05:35:40;101600.06;;;0.82;77.06
31483;BME280;18103;52.246;8.052;2023-01-29T05:38:05;101602.75;;;0.78;77.46
31483;BME280;18103;52.246;8.052;2023-01-29T05:40:31;101609.56;;;0.85;77.10
31483;BME280;18103;52.246;8.052;2023-01-29T05:42:57;101604.31;;;0.87;77.05
31483;BME280;18103;52.246;8.052;2023-01-29T05:45:22;101611.38;;;0.81;77.41
31483;BME280;18103;52.246;8.052;2023-01-29T05:47:47;101620.81;;;0.85;77.33
31483;BME280;18103;52.246;8.052;2023-01-29T05:50:13;101610.44;;;0.85;77.63
31483;BME280;18103;52.246;8.052;2023-01-29T05:52:40;101604.25;;;0.91;76.89
31483;BME280;18103;52.246;8.052;2023-01-29T05:55:06;101595.81;;;0.80;78.00
31483;BME280;18103;52.246;8.052;2023-01-29T05:57:32;101588.72;;;0.87;77.77
31483;BME280;18103;52.246;8.052;2023-01-29T05:59:57;101591.31;;;0.87;77.41
31483;BME280;18103;52.246;8.052;2023-01-29T06:02:23;101600.06;;;0.84;77.71
31483;BME280;18103;52.246;8.052;2023-01-29T06:04:50;101610.47;;;0.82;77.91
31483;BME280;18103;52.246;8.052;2023-01-29T06:07:15;101605.94;;;0.92;77.89
31483;BME280;18103;52.246;8.052;2023-01-29T06:09:41;101602.56;;;0.89;77.72
31483;BME280;18103;52.246;8.052;2023-01-29T06:12:06;101606.06;;;0.86;77.59
31483;BME280;18103;52.246;8.052;2023-01-29T06:14:32;101608.69;;;0.84;77.91
31483;BME280;18103;52.246;8.052;2023-01-29T06:16:57;101608.78;;;0.78;78.14
31483;BME280;18103;52.246;8.052;2023-01-29T06:19:23;101623.28;;;0.93;77.77
31483;BME280;18103;52.246;8.052;2023-01-29T06:21:48;101625.00;;;0.94;77.75
31483;BME280;18103;52.246;8.052;2023-01-29T06:24:14;101626.91;;;0.84;78.03
31483;BME280;18103;52.246;8.052;2023-01-29T06:26:39;101625.09;;;0.88;78.00
31483;BME280;18103;52.246;8.052;2023-01-29T06:29:05;101614.00;;;0.78;78.35
31483;BME280;18103;52.246;8.052;2023-01-29T06:31:30;101607.13;;;0.76;78.39
31483;BME280;18103;52.246;8.052;2023-01-29T06:33:56;101616.47;;;0.86;77.75
31483;BME280;18103;52.246;8.052;2023-01-29T06:36:21;101624.16;;;0.92;77.63
31483;BME280;18103;52.246;8.052;2023-01-29T06:38:47;101602.63;;;0.85;78.00
31483;BME280;18103;52.246;8.052;2023-01-29T06:41:15;101604.59;;;0.71;78.09
31483;BME280;18103;52.246;8.052;2023-01-29T06:43:43;101615.84;;;0.73;78.25
31483;BME280;18103;52.246;8.052;2023-01-29T06:46:09;101600.22;;;0.75;78.46
31483;BME280;18103;52.246;8.052;2023-01-29T06:48:34;101606.25;;;0.75;78.33
31483;BME280;18103;52.246;8.052;2023-01-29T06:51:04;101599.41;;;0.70;78.74
31483;BME280;18103;52.246;8.052;2023-01-29T06:53:32;101597.81;;;0.62;79.17
31483;BME280;18103;52.246;8.052;2023-01-29T06:55:57;101601.97;;;0.73;78.44
31483;BME280;18103;52.246;8.052;2023-01-29T06:58:23;101595.97;;;0.69;78.60
31483;BME280;18103;52.246;8.052;2023-01-29T07:00:49;101602.94;;;0.65;78.80
31483;BME280;18103;52.246;8.052;2023-01-29T07:03:14;101603.00;;;0.62;79.12
31483;BME280;18103;52.246;8.052;2023-01-29T07:05:40;101608.97;;;0.69;79.05
31483;BME280;18103;52.246;8.052;2023-01-29T07:08:05;101603.88;;;0.64;79.08
31483;BME280;18103;52.246;8.052;2023-01-29T07:10:31;101614.22;;;0.66;79.51
31483;BME280;18103;52.246;8.052;2023-01-29T07:13:00;101613.28;;;0.68;79.00
31483;BME280;18103;52.246;8.052;2023-01-29T07:15:26;101601.22;;;0.66;79.01
31483;BME280;18103;52.246;8.052;2023-01-29T07:18:01;101606.31;;;0.72;78.68
31483;BME280;18103;52.246;8.052;2023-01-29T07:20:30;101604.78;;;0.60;79.53
31483;BME280;18103;52.246;8.052;2023-01-29T07:22:56;101593.59;;;0.55;79.52
31483;BME280;18103;52.246;8.052;2023-01-29T07:25:22;101596.16;;;0.58;79.67
31483;BME280;18103;52.246;8.052;2023-01-29T07:27:48;101589.97;;;0.65;79.57
31483;BME280;18103;52.246;8.052;2023-01-29T07:30:14;101583.88;;;0.68;79.45
31483;BME280;18103;52.246;8.052;2023-01-29T07:32:40;101589.06;;;0.68;79.32
31483;BME280;18103;52.246;8.052;2023-01-29T07:35:06;101589.91;;;0.68;79.54
31483;BME280;18103;52.246;8.052;2023-01-29T07:37:32;101589.88;;;0.72;79.53
31483;BME280;18103;52.246;8.052;2023-01-29T07:39:57;101592.41;;;0.75;79.50
31483;BME280;18103;52.246;8.052;2023-01-29T07:42:23;101587.13;;;0.79;79.48
31483;BME280;18103;52.246;8.052;2023-01-29T07:44:48;101583.66;;;0.80;79.25
31483;BME280;18103;52.246;8.052;2023-01-29T07:47:13;101589.66;;;0.82;79.55
31483;BME280;18103;52.246;8.052;2023-01-29T07:49:39;101584.50;;;0.81;79.95
31483;BME280;18103;52.246;8.052;2023-01-29T07:52:04;101589.75;;;0.78;79.75
31483;BME280;18103;52.246;8.052;2023-01-29T07:54:30;101583.78;;;0.73;79.98
31483;BME280;18103;52.246;8.052;2023-01-29T07:56:55;101580.34;;;0.71;80.64
31483;BME280;18103;52.246;8.052;2023-01-29T07:59:21;101573.31;;;0.77;80.46
31483;BME280;18103;52.246;8.052;2023-01-29T08:01:46;101568.13;;;0.77;80.17
31483;BME280;18103;52.246;8.052;2023-01-29T08:04:11;101568.00;;;0.83;79.94
31483;BME280;18103;52.246;8.052;2023-01-29T08:06:37;101559.41;;;0.80;79.90
31483;BME280;18103;52.246;8.052;2023-01-29T08:09:02;101568.81;;;0.87;80.00
31483;BME280;18103;52.246;8.052;2023-01-29T08:11:27;101556.75;;;0.83;80.15
31483;BME280;18103;52.246;8.052;2023-01-29T08:13:53;101539.38;;;0.85;80.32
31483;BME280;18103;52.246;8.052;2023-01-29T08:16:19;101528.19;;;0.81;80.39
31483;BME280;18103;52.246;8.052;2023-01-29T08:18:44;101519.50;;;0.84;80.58
31483;BME280;18103;52.246;8.052;2023-01-29T08:21:12;101515.91;;;0.88;80.09
31483;BME280;18103;52.246;8.052;2023-01-29T08:23:37;101515.91;;;0.90;80.03
31483;BME280;18103;52.246;8.052;2023-01-29T08:26:03;101522.63;;;1.00;79.77
31483;BME280;18103;52.246;8.052;2023-01-29T08:28:29;101533.94;;;0.97;79.60
31483;BME280;18103;52.246;8.052;2023-01-29T08:30:54;101544.31;;;0.99;79.67
31483;BME280;18103;52.246;8.052;2023-01-29T08:33:19;101538.94;;;1.08;79.19
31483;BME280;18103;52.246;8.052;2023-01-29T08:35:49;101552.75;;;1.10;79.39
31483;BME280;18103;52.246;8.052;2023-01-29T08:38:15;101551.25;;;1.00;79.41
31483;BME280;18103;52.246;8.052;2023-01-29T08:40:40;101544.38;;;0.96;79.27
31483;BME280;18103;52.246;8.052;2023-01-29T08:43:06;101551.13;;;1.05;79.25
31483;BME280;18103;52.246;8.052;2023-01-29T08:45:34;101543.38;;;1.03;78.58
31483;BME280;18103;52.246;8.052;2023-01-29T08:48:00;101542.56;;;1.01;79.00
31483;BME280;18103;52.246;8.052;2023-01-29T08:50:25;101530.41;;;1.01;79.12
31483;BME280;18103;52.246;8.052;2023-01-29T08:52:50;101519.22;;;0.96;79.00
31483;BME280;18103;52.246;8.052;2023-01-29T08:55:16;101517.44;;;1.00;79.09
31483;BME280;18103;52.246;8.052;2023-01-29T08:57:41;101523.69;;;0.91;79.25
31483;BME280;18103;52.246;8.052;2023-01-29T09:00:08;101526.78;;;1.09;78.87
31483;BME280;18103;52.246;8.052;2023-01-29T09:02:35;101519.00;;;1.09;78.53
31483;BME280;18103;52.246;8.052;2023-01-29T09:05:01;101520.09;;;0.97;78.96
31483;BME280;18103;52.246;8.052;2023-01-29T09:07:28;101518.41;;;0.94;79.47
31483;BME280;18103;52.246;8.052;2023-01-29T09:09:53;101518.25;;;1.02;78.78
31483;BME280;18103;52.246;8.052;2023-01-29T09:12:19;101516.66;;;0.95;79.36
31483;BME280;18103;52.246;8.052;2023-01-29T09:14:44;101526.88;;;1.06;79.04
31483;BME280;18103;52.246;8.052;2023-01-29T09:17:10;101544.09;;;1.11;78.99
31483;BME280;18103;52.246;8.052;2023-01-29T09:19:35;101543.25;;;1.11;78.90
31483;BME280;18103;52.246;8.052;2023-01-29T09:22:01;101547.44;;;1.18;78.64
31483;BME280;18103;52.246;8.052;2023-01-29T09:24:26;101552.63;;;1.18;78.95
31483;BME280;18103;52.246;8.052;2023-01-29T09:26:51;101546.50;;;1.21;78.65
31483;BME280;18103;52.246;8.052;2023-01-29T09:29:17;101544.84;;;1.16;78.92
31483;BME280;18103;52.246;8.052;2023-01-29T09:31:42;101550.91;;;1.17;79.06
31483;BME280;18103;52.246;8.052;2023-01-29T09:34:07;101547.34;;;1.21;78.89
31483;BME280;18103;52.246;8.052;2023-01-29T09:36:33;101550.75;;;1.25;78.41
31483;BME280;18103;52.246;8.052;2023-01-29T09:38:58;101548.00;;;1.32;78.72
31483;BME280;18103;52.246;8.052;2023-01-29T09:43:58;101537.75;;;1.25;78.87
31483;BME280;18103;52.246;8.052;2023-01-29T09:46:42;101532.56;;;1.25;78.83
31483;BME280;18103;52.246;8.052;2023-01-29T09:49:16;101526.28;;;1.35;78.61
31483;BME280;18103;52.246;8.052;2023-01-29T09:51:51;101521.06;;;1.35;78.67
31483;BME280;18103;52.246;8.052;2023-01-29T09:54:31;101507.28;;;1.30;78.77
31483;BME280;18103;52.246;8.052;2023-01-29T09:56:59;101501.13;;;1.34;79.28
31483;BME280;18103;52.246;8.052;2023-01-29T09:59:26;101503.78;;;1.32;78.88
31483;BME280;18103;52.246;8.052;2023-01-29T10:02:12;101503.66;;;1.37;78.56
31483;BME280;18103;52.246;8.052;2023-01-29T10:04:49;101506.16;;;1.43;78.59
31483;BME280;18103;52.246;8.052;2023-01-29T10:07:51;101504.41;;;1.44;78.22
31483;BME280;18103;52.246;8.052;2023-01-29T10:10:50;101496.66;;;1.41;78.72
31483;BME280;18103;52.246;8.052;2023-01-29T10:13:32;101489.78;;;1.38;78.79
31483;BME280;18103;52.246;8.052;2023-01-29T10:26:34;101490.84;;;1.29;79.21
31483;BME280;18103;52.246;8.052;2023-01-29T10:29:05;101472.56;;;1.32;78.94
31483;BME280;18103;52.246;8.052;2023-01-29T10:31:33;101468.06;;;1.41;78.77
31483;BME280;18103;52.246;8.052;2023-01-29T10:34:13;101476.66;;;1.43;78.67
31483;BME280;18103;52.246;8.052;2023-01-29T10:36:48;101474.75;;;1.51;78.68
31483;BME280;18103;52.246;8.052;2023-01-29T10:39:19;101469.69;;;1.45;78.81
31483;BME280;18103;52.246;8.052;2023-01-29T11:00:21;101423.34;;;1.61;78.87
31483;BME280;18103;52.246;8.052;2023-01-29T11:02:49;101421.72;;;1.58;78.67
31483;BME280;18103;52.246;8.052;2023-01-29T11:07:59;101422.34;;;1.68;78.85
31483;BME280;18103;52.246;8.052;2023-01-29T11:10:26;101422.34;;;1.68;78.31
31483;BME280;18103;52.246;8.052;2023-01-29T11:12:53;101413.69;;;1.66;78.39
31483;BME280;18103;52.246;8.052;2023-01-29T11:15:25;101416.91;;;1.77;78.20
31483;BME280;18103;52.246;8.052;2023-01-29T11:18:08;101409.16;;;1.74;78.13
31483;BME280;18103;52.246;8.052;2023-01-29T11:20:37;101396.81;;;1.82;78.22
31483;BME280;18103;52.246;8.052;2023-01-29T11:23:02;101400.13;;;1.89;77.72
31483;BME280;18103;52.246;8.052;2023-01-29T11:25:28;101388.22;;;1.79;78.31
31483;BME280;18103;52.246;8.052;2023-01-29T11:27:58;101394.94;;;1.89;77.79
31483;BME280;18103;52.246;8.052;2023-01-29T11:30:36;101396.00;;;1.80;78.31
31483;BME280;18103;52.246;8.052;2023-01-29T11:33:22;101389.81;;;1.84;78.04
31483;BME280;18103;52.246;8.052;2023-01-29T11:35:48;101385.44;;;1.86;77.43
31483;BME280;18103;52.246;8.052;2023-01-29T11:38:27;101390.72;;;1.83;77.45
31483;BME280;18103;52.246;8.052;2023-01-29T11:41:05;101392.13;;;1.97;77.12
31483;BME280;18103;52.246;8.052;2023-01-29T11:43:32;101390.66;;;1.86;77.57
31483;BME280;18103;52.246;8.052;2023-01-29T11:46:01;101394.81;;;1.94;76.96
31483;BME280;18103;52.246;8.052;2023-01-29T11:48:48;101382.72;;;1.91;77.12
31483;BME280;18103;52.246;8.052;2023-01-29T11:51:26;101373.00;;;1.98;77.04
31483;BME280;18103;52.246;8.052;2023-01-29T11:53:58;101372.38;;;1.88;76.84
31483;BME280;18103;52.246;8.052;2023-01-29T11:56:33;101369.34;;;2.05;76.35
31483;BME280;18103;52.246;8.052;2023-01-29T11:59:00;101363.47;;;1.97;76.72
31483;BME280;18103;52.246;8.052;2023-01-29T12:01:39;101352.31;;;1.92;76.78
31483;BME280;18103;52.246;8.052;2023-01-29T12:04:20;101343.53;;;1.97;76.71
31483;BME280;18103;52.246;8.052;2023-01-29T12:06:49;101342.38;;;2.08;76.55
31483;BME280;18103;52.246;8.052;2023-01-29T12:09:22;101336.59;;;1.96;76.74
31483;BME280;18103;52.246;8.052;2023-01-29T12:11:48;101332.22;;;1.97;76.89
31483;BME280;18103;52.246;8.052;2023-01-29T12:14:30;101333.94;;;1.98;76.53
31483;BME280;18103;52.246;8.052;2023-01-29T12:17:13;101321.94;;;1.92;76.32
31483;BME280;18103;52.246;8.052;2023-01-29T12:19:51;101316.66;;;1.95;76.67
31483;BME280;18103;52.246;8.052;2023-01-29T12:25:47;101306.31;;;1.92;76.40
31483;BME280;18103;52.246;8.052;2023-01-29T12:31:32;101301.72;;;2.02;76.00
31483;BME280;18103;52.246;8.052;2023-01-29T12:34:22;101298.28;;;2.00;76.07
31483;BME280;18103;52.246;8.052;2023-01-29T12:36:55;101301.88;;;1.97;76.28
31483;BME280;18103;52.246;8.052;2023-01-29T12:39:23;101293.72;;;2.08;75.77
31483;BME280;18103;52.246;8.052;2023-01-29T12:41:53;101285.47;;;1.94;76.13
31483;BME280;18103;52.246;8.052;2023-01-29T12:44:32;101276.72;;;1.96;76.28
31483;BME280;18103;52.246;8.052;2023-01-29T12:47:02;101271.22;;;2.05;75.48
31483;BME280;18103;52.246;8.052;2023-01-29T12:49:36;101274.75;;;2.04;76.25
31483;BME280;18103;52.246;8.052;2023-01-29T12:52:11;101262.75;;;1.99;76.44
31483;BME280;18103;52.246;8.052;2023-01-29T12:54:45;101258.44;;;1.98;76.22
31483;BME280;18103;52.246;8.052;2023-01-29T12:57:37;101267.00;;;2.01;76.38
31483;BME280;18103;52.246;8.052;2023-01-29T13:00:12;101264.28;;;2.06;76.13
31483;BME280;18103;52.246;8.052;2023-01-29T13:02:54;101251.44;;;2.00;75.58
31483;BME280;18103;52.246;8.052;2023-01-29T13:05:37;101254.75;;;2.05;75.98
31483;BME280;18103;52.246;8.052;2023-01-29T13:08:23;101242.72;;;2.01;76.03
31483;BME280;18103;52.246;8.052;2023-01-29T13:10:52;101235.75;;;2.03;76.04
31483;BME280;18103;52.246;8.052;2023-01-29T13:16:18;101226.22;;;2.02;75.92
31483;BME280;18103;52.246;8.052;2023-01-29T13:19:00;101226.22;;;2.02;76.13
31483;BME280;18103;52.246;8.052;2023-01-29T13:21:35;101227.94;;;2.03;76.11
31483;BME280;18103;52.246;8.052;2023-01-29T13:24:08;101213.94;;;2.07;76.13
31483;BME280;18103;52.246;8.052;2023-01-29T13:26:35;101207.94;;;2.03;75.55
31483;BME280;18103;52.246;8.052;2023-01-29T13:29:02;101217.63;;;1.98;76.34
31483;BME280;18103;52.246;8.052;2023-01-29T13:31:34;101209.59;;;2.06;76.50
31483;BME280;18103;52.246;8.052;2023-01-29T13:34:15;101214.97;;;2.00;76.04
31483;BME280;18103;52.246;8.052;2023-01-29T13:36:47;101213.34;;;1.96;76.07
31483;BME280;18103;52.246;8.052;2023-01-29T13:39:27;101210.75;;;1.97;76.30
31483;BME280;18103;52.246;8.052;2023-01-29T13:41:54;101198.50;;;1.99;76.37
31483;BME280;18103;52.246;8.052;2023-01-29T13:47:00;101193.34;;;1.98;76.00
31483;BME280;18103;52.246;8.052;2023-01-29T13:49:39;101199.28;;;2.03;76.33
31483;BME280;18103;52.246;8.052;2023-01-29T13:54:57;101186.97;;;2.08;76.29
31483;BME280;18103;52.246;8.052;2023-01-29T14:02:41;101184.50;;;2.03;76.64
31483;BME280;18103;52.246;8.052;2023-01-29T14:05:58;101180.25;;;2.01;76.69
31483;BME280;18103;52.246;8.052;2023-01-29T14:08:43;101174.28;;;1.97;76.99
31483;BME280;18103;52.246;8.052;2023-01-29T14:13:37;101170.84;;;1.95;77.21
31483;BME280;18103;52.246;8.052;2023-01-29T14:18:30;101180.13;;;2.04;77.65
31483;BME280;18103;52.246;8.052;2023-01-29T14:21:20;101176.84;;;1.99;77.89
31483;BME280;18103;52.246;8.052;2023-01-29T14:23:51;101165.78;;;1.91;78.26
31483;BME280;18103;52.246;8.052;2023-01-29T14:32:17;101171.69;;;1.97;78.06
31483;BME280;18103;52.246;8.052;2023-01-29T14:34:47;101169.16;;;1.94;78.18
31483;BME280;18103;52.246;8.052;2023-01-29T14:37:20;101163.19;;;1.91;78.13
31483;BME280;18103;52.246;8.052;2023-01-29T14:39:57;101158.66;;;1.97;78.10
31483;BME280;18103;52.246;8.052;2023-01-29T14:47:56;101158.69;;;1.96;78.36
31483;BME280;18103;52.246;8.052;2023-01-29T14:53:04;101154.78;;;1.81;78.98
31483;BME280;18103;52.246;8.052;2023-01-29T14:55:40;101159.09;;;1.82;79.57
31483;BME280;18103;52.246;8.052;2023-01-29T14:58:16;101154.47;;;1.92;79.09
31483;BME280;18103;52.246;8.052;2023-01-29T15:00:45;101159.81;;;1.87;79.48
31483;BME280;18103;52.246;8.052;2023-01-29T15:03:23;101151.06;;;1.90;79.59
31483;BME280;18103;52.246;8.052;2023-01-29T15:05:52;101151.25;;;1.83;80.20
31483;BME280;18103;52.246;8.052;2023-01-29T15:08:47;101149.69;;;1.78;80.30
31483;BME280;18103;52.246;8.052;2023-01-29T15:11:24;101146.31;;;1.74;80.73
31483;BME280;18103;52.246;8.052;2023-01-29T15:14:11;101146.34;;;1.73;80.60
31483;BME280;18103;52.246;8.052;2023-01-29T15:16:52;101153.38;;;1.69;80.95
31483;BME280;18103;52.246;8.052;2023-01-29T15:19:22;101163.00;;;1.67;80.85
31483;BME280;18103;52.246;8.052;2023-01-29T15:22:09;101144.72;;;1.68;81.33